Time;durP1;ratioP1;P1;durP2;ratioP2;P2;SDS_P1;SDS_P2;PMS_P1;PMS_P2;Temp;Humidity;BMP_temperature;BMP_pressure;BME280_temperature;BME280_humidity;BME280_pressure;Samples;Min_cycle;Max_cycle;Signal;HPM_P1;HPM_P2
2023/06/07 00:01:55;;;;;;;9.45;6.28;;;11.10;99.90;;;;;;5051066;28;20467;-71
2023/06/07 00:04:21;;;;;;;9.45;5.60;;;11.00;99.90;;;;;;5052713;28;20040;-71
2023/06/07 00:06:47;;;;;;;10.13;6.40;;;11.00;99.90;;;;;;5052635;28;20075;-71
2023/06/07 00:09:13;;;;;;;7.53;5.57;;;11.00;99.90;;;;;;5052999;28;20029;-71
2023/06/07 00:11:39;;;;;;;7.03;5.65;;;11.00;99.90;;;;;;5052386;28;20064;-74
2023/06/07 00:14:05;;;;;;;7.13;6.05;;;11.00;99.90;;;;;;5052015;28;20836;-71
2023/06/07 00:16:32;;;;;;;8.48;6.53;;;11.00;99.90;;;;;;5052387;28;20021;-70
2023/06/07 00:18:58;;;;;;;7.35;6.15;;;11.00;99.90;;;;;;5050611;28;20036;-72
2023/06/07 00:21:26;;;;;;;8.23;6.05;;;11.00;99.90;;;;;;5052046;28;20458;-71
2023/06/07 00:23:52;;;;;;;7.85;6.32;;;11.00;99.90;;;;;;5052537;28;20025;-71
2023/06/07 00:26:18;;;;;;;7.07;5.60;;;11.00;99.90;;;;;;5052159;28;20045;-71
2023/06/07 00:28:43;;;;;;;7.38;6.03;;;10.90;99.90;;;;;;5052018;28;20462;-72
2023/06/07 00:31:09;;;;;;;10.32;6.25;;;10.80;99.90;;;;;;5052271;28;20064;-71
2023/06/07 00:33:35;;;;;;;7.70;6.05;;;10.70;99.90;;;;;;5052225;28;20033;-71
2023/06/07 00:36:00;;;;;;;7.57;6.07;;;10.70;99.90;;;;;;5050936;28;20040;-71
2023/06/07 00:38:26;;;;;;;6.72;5.68;;;10.70;99.90;;;;;;5052225;28;20028;-71
2023/06/07 00:40:52;;;;;;;8.63;6.43;;;10.70;99.90;;;;;;5051580;28;20029;-71
2023/06/07 00:43:18;;;;;;;7.15;5.82;;;10.70;99.90;;;;;;5051798;28;20032;-71
2023/06/07 00:45:43;;;;;;;9.98;6.45;;;10.70;99.90;;;;;;5051588;28;20071;-74
2023/06/07 00:48:10;;;;;;;9.27;7.03;;;10.70;99.90;;;;;;5052200;28;20424;-71
2023/06/07 00:50:36;;;;;;;7.07;5.85;;;10.60;99.90;;;;;;5051774;28;20112;-72
2023/06/07 00:53:03;;;;;;;8.57;6.22;;;10.50;99.90;;;;;;5051589;28;20108;-71
2023/06/07 00:55:29;;;;;;;10.00;7.00;;;10.50;99.90;;;;;;5051781;28;20073;-71
2023/06/07 00:57:55;;;;;;;8.15;6.55;;;10.40;99.90;;;;;;5051189;28;20025;-71
2023/06/07 01:00:22;;;;;;;8.73;6.63;;;10.40;99.90;;;;;;5051770;28;20033;-71
2023/06/07 01:02:49;;;;;;;8.65;6.13;;;10.40;99.90;;;;;;5050986;28;20051;-71
2023/06/07 01:05:16;;;;;;;9.60;6.80;;;10.40;99.90;;;;;;5051585;28;20065;-71
2023/06/07 01:07:45;;;;;;;8.80;6.68;;;10.30;99.90;;;;;;5051247;28;20494;-71
2023/06/07 01:10:11;;;;;;;9.32;6.75;;;10.20;99.90;;;;;;5052080;28;20025;-71
2023/06/07 01:12:39;;;;;;;9.48;6.30;;;10.20;99.90;;;;;;5051536;28;20108;-71
2023/06/07 01:15:06;;;;;;;9.98;7.43;;;10.20;99.90;;;;;;5050995;28;20044;-71
2023/06/07 01:17:37;;;;;;;9.43;7.50;;;10.10;99.90;;;;;;5051425;28;20029;-71
2023/06/07 01:20:04;;;;;;;9.48;6.75;;;10.10;99.90;;;;;;5050907;28;20021;-71
2023/06/07 01:22:33;;;;;;;9.55;7.57;;;10.00;99.90;;;;;;5051815;28;20033;-71
2023/06/07 01:25:00;;;;;;;11.45;9.02;;;10.00;99.90;;;;;;5050793;28;20170;-71
2023/06/07 01:27:30;;;;;;;12.50;7.57;;;10.00;99.90;;;;;;5051238;28;20053;-71
2023/06/07 01:29:57;;;;;;;10.32;8.35;;;10.10;99.90;;;;;;5050394;28;20029;-71
2023/06/07 01:32:24;;;;;;;11.55;8.48;;;10.00;99.90;;;;;;5049852;28;20327;-71
2023/06/07 01:34:51;;;;;;;9.77;7.90;;;10.00;99.90;;;;;;5050666;28;20378;-71
2023/06/07 01:37:18;;;;;;;13.07;8.38;;;10.00;99.90;;;;;;5051280;28;20098;-71
2023/06/07 01:39:45;;;;;;;9.90;7.47;;;10.00;99.90;;;;;;5051094;28;20033;-73
2023/06/07 01:42:11;;;;;;;12.40;8.65;;;10.00;99.90;;;;;;5050353;28;20021;-71
2023/06/07 01:44:41;;;;;;;13.52;9.00;;;10.00;99.90;;;;;;5051156;28;20037;-70
2023/06/07 01:47:08;;;;;;;9.85;7.28;;;10.00;99.90;;;;;;5050319;28;20024;-71
2023/06/07 01:49:34;;;;;;;13.45;8.52;;;9.90;99.90;;;;;;5051268;28;20083;-71
2023/06/07 01:52:00;;;;;;;13.18;9.25;;;9.90;99.90;;;;;;5050413;28;20082;-72
2023/06/07 01:54:26;;;;;;;17.42;8.80;;;10.00;99.90;;;;;;5051038;28;20394;-71
2023/06/07 01:57:33;;;;;;;12.20;8.02;;;10.10;99.90;;;;;;5050049;28;20048;-71
2023/06/07 02:00:24;;;;;;;10.80;7.97;;;10.10;99.90;;;;;;5007990;28;20133;-71
2023/06/07 02:02:59;;;;;;;10.13;7.75;;;10.20;99.90;;;;;;5007945;28;20507;-71
2023/06/07 02:05:37;;;;;;;10.40;8.25;;;10.20;99.90;;;;;;4992062;28;20484;-71
2023/06/07 02:08:19;;;;;;;13.10;10.00;;;10.30;99.90;;;;;;5008057;28;20026;-71
2023/06/07 02:10:46;;;;;;;12.68;8.88;;;10.40;99.90;;;;;;5008464;28;20042;-71
2023/06/07 02:13:14;;;;;;;11.43;8.77;;;10.40;99.90;;;;;;5008010;28;20030;-71
2023/06/07 02:15:43;;;;;;;13.80;9.40;;;10.50;99.90;;;;;;5008371;28;20109;-71
2023/06/07 02:18:11;;;;;;;12.95;8.82;;;10.60;99.90;;;;;;5007787;28;20794;-71
2023/06/07 02:20:37;;;;;;;12.77;9.65;;;10.60;99.90;;;;;;5008333;28;20081;-71
2023/06/07 02:23:03;;;;;;;14.10;8.85;;;10.60;99.90;;;;;;5008023;28;20030;-71
2023/06/07 02:25:30;;;;;;;12.73;8.95;;;10.70;99.90;;;;;;5008697;28;20030;-71
2023/06/07 02:27:57;;;;;;;10.45;8.75;;;10.70;99.90;;;;;;5007648;28;20054;-71
2023/06/07 02:30:23;;;;;;;13.52;9.57;;;10.70;99.90;;;;;;5024349;28;20033;-71
2023/06/07 02:32:49;;;;;;;16.63;11.10;;;10.80;99.90;;;;;;5049953;28;20025;-74
2023/06/07 02:35:17;;;;;;;14.65;9.60;;;10.80;99.90;;;;;;5050315;28;20490;-71
2023/06/07 02:37:42;;;;;;;15.63;10.23;;;10.90;99.90;;;;;;5050584;28;20044;-71
2023/06/07 02:40:09;;;;;;;15.93;10.45;;;10.90;99.90;;;;;;5049365;28;20028;-71
2023/06/07 02:42:36;;;;;;;13.18;9.90;;;10.90;99.90;;;;;;5048579;28;20152;-71
2023/06/07 02:45:02;;;;;;;14.20;9.77;;;10.90;99.90;;;;;;5049490;28;20083;-71
2023/06/07 02:47:29;;;;;;;13.98;10.10;;;11.00;99.90;;;;;;5050270;28;20029;-71
2023/06/07 02:49:55;;;;;;;15.02;10.38;;;11.00;99.90;;;;;;5049673;28;20037;-71
2023/06/07 02:52:21;;;;;;;16.13;10.93;;;11.00;99.90;;;;;;5049942;28;20026;-71
2023/06/07 02:54:47;;;;;;;13.18;9.98;;;11.00;99.90;;;;;;5050318;28;20031;-71
2023/06/07 02:57:12;;;;;;;13.32;10.35;;;11.10;99.90;;;;;;5049589;28;20043;-71
2023/06/07 02:59:39;;;;;;;14.85;10.60;;;11.20;99.90;;;;;;5050348;28;20025;-71
2023/06/07 03:02:05;;;;;;;13.77;9.65;;;11.20;99.90;;;;;;5049395;28;20022;-71
2023/06/07 03:04:31;;;;;;;11.50;8.55;;;11.20;99.90;;;;;;5049955;28;20033;-71
2023/06/07 03:06:58;;;;;;;11.55;8.40;;;11.20;99.90;;;;;;5049616;28;20025;-72
2023/06/07 03:09:24;;;;;;;13.82;9.45;;;11.30;99.90;;;;;;5050119;28;20091;-71
2023/06/07 03:11:50;;;;;;;15.27;9.52;;;11.30;99.90;;;;;;5049921;28;20175;-73
2023/06/07 03:14:18;;;;;;;13.43;8.90;;;11.40;99.90;;;;;;5031093;28;20510;-71
2023/06/07 03:16:47;;;;;;;10.18;8.35;;;11.40;99.90;;;;;;5049769;28;20064;-70
2023/06/07 03:19:14;;;;;;;11.52;8.63;;;11.50;99.90;;;;;;5049507;28;20242;-71
2023/06/07 03:21:40;;;;;;;11.43;8.20;;;11.50;99.90;;;;;;5049720;28;20029;-71
2023/06/07 03:24:06;;;;;;;12.85;8.63;;;11.50;99.90;;;;;;5049106;28;20040;-71
2023/06/07 03:26:32;;;;;;;13.70;8.02;;;11.50;99.90;;;;;;5049367;28;20071;-71
2023/06/07 03:28:57;;;;;;;8.98;7.28;;;11.40;99.90;;;;;;5049188;28;20083;-71
2023/06/07 03:31:25;;;;;;;9.52;6.90;;;11.40;99.90;;;;;;5049801;28;20025;-71
2023/06/07 03:33:50;;;;;;;10.50;7.95;;;11.40;99.90;;;;;;5049532;28;20037;-72
2023/06/07 03:36:20;;;;;;;10.68;8.57;;;11.40;99.90;;;;;;5049145;28;20041;-70
2023/06/07 03:38:46;;;;;;;9.25;7.45;;;11.40;99.90;;;;;;5049717;28;20033;-71
2023/06/07 03:41:12;;;;;;;12.70;7.93;;;11.50;99.90;;;;;;5048988;28;20116;-71
2023/06/07 03:43:38;;;;;;;11.10;8.10;;;11.50;99.90;;;;;;5049617;28;20116;-71
2023/06/07 03:46:03;;;;;;;14.50;9.00;;;11.50;99.90;;;;;;5049076;28;20060;-71
2023/06/07 03:48:29;;;;;;;12.10;9.23;;;11.50;99.90;;;;;;5049671;28;20392;-71
2023/06/07 03:50:55;;;;;;;13.15;9.23;;;11.50;99.90;;;;;;5049264;28;20025;-73
2023/06/07 03:53:21;;;;;;;11.73;9.00;;;11.40;99.90;;;;;;5052364;28;20486;-70
2023/06/07 03:55:49;;;;;;;16.38;9.50;;;11.40;99.90;;;;;;5053467;28;20032;-70
2023/06/07 03:58:18;;;;;;;13.30;9.10;;;11.40;99.90;;;;;;5052960;28;20077;-70
2023/06/07 04:00:45;;;;;;;15.02;8.75;;;11.40;99.90;;;;;;5051937;28;20025;-70
2023/06/07 04:03:11;;;;;;;10.85;8.07;;;11.40;99.90;;;;;;5052555;28;20024;-70
2023/06/07 04:05:39;;;;;;;12.52;9.02;;;11.50;99.90;;;;;;5053703;28;20033;-70
2023/06/07 04:08:06;;;;;;;13.30;9.73;;;11.60;99.90;;;;;;5052566;28;20028;-70
2023/06/07 04:10:32;;;;;;;14.25;9.85;;;11.60;99.90;;;;;;5053248;28;20021;-70
2023/06/07 04:12:57;;;;;;;15.70;9.77;;;11.60;99.90;;;;;;5052196;28;20517;-71
2023/06/07 04:15:23;;;;;;;13.00;9.82;;;11.70;99.90;;;;;;5052601;28;20043;-70
2023/06/07 04:17:49;;;;;;;16.70;10.27;;;11.70;99.90;;;;;;5052774;28;20496;-71
2023/06/07 04:20:15;;;;;;;17.67;10.90;;;11.80;99.90;;;;;;5052202;28;20029;-70
2023/06/07 04:22:41;;;;;;;15.18;11.40;;;11.70;99.90;;;;;;5053208;28;20029;-70
2023/06/07 04:25:07;;;;;;;17.55;11.10;;;11.70;99.90;;;;;;5052669;28;20036;-70
2023/06/07 04:27:34;;;;;;;16.33;10.70;;;11.70;99.90;;;;;;5053212;28;20052;-71
2023/06/07 04:30:02;;;;;;;14.48;10.15;;;11.70;99.90;;;;;;5052651;28;20033;-71
2023/06/07 04:32:29;;;;;;;21.75;13.27;;;11.70;99.90;;;;;;5052907;28;20422;-69
2023/06/07 04:34:56;;;;;;;14.45;11.07;;;11.80;99.90;;;;;;5053338;28;20051;-70
2023/06/07 04:37:24;;;;;;;23.30;15.32;;;11.90;99.90;;;;;;5052647;28;20108;-70
2023/06/07 04:39:51;;;;;;;25.67;15.75;;;11.90;99.90;;;;;;5052669;28;20036;-70
2023/06/07 04:42:17;;;;;;;23.85;16.75;;;12.00;99.90;;;;;;5052259;28;20044;-70
2023/06/07 04:44:44;;;;;;;22.02;16.35;;;12.10;99.90;;;;;;5052266;28;20076;-70
2023/06/07 04:47:10;;;;;;;19.77;14.15;;;12.20;99.90;;;;;;5051846;28;20036;-70
2023/06/07 04:49:38;;;;;;;20.27;14.77;;;12.30;99.90;;;;;;5052259;28;20025;-70
2023/06/07 04:52:05;;;;;;;20.83;15.25;;;12.40;99.90;;;;;;5051677;28;20064;-70
2023/06/07 04:54:32;;;;;;;24.08;16.23;;;12.50;99.90;;;;;;5052092;28;20025;-70
2023/06/07 04:56:58;;;;;;;25.58;17.52;;;12.60;99.90;;;;;;5051970;28;20048;-73
2023/06/07 04:59:25;;;;;;;26.05;18.20;;;12.70;99.90;;;;;;5051871;28;20017;-70
2023/06/07 05:01:51;;;;;;;23.40;15.60;;;12.80;99.90;;;;;;5052058;28;20029;-70
2023/06/07 05:04:18;;;;;;;19.65;13.50;;;12.90;99.90;;;;;;5050465;28;20037;-70
2023/06/07 05:06:43;;;;;;;18.48;13.57;;;13.00;99.90;;;;;;5051939;28;20036;-70
2023/06/07 05:09:09;;;;;;;19.00;13.57;;;13.10;99.90;;;;;;5050989;28;20029;-71
2023/06/07 05:11:35;;;;;;;18.42;12.70;;;13.20;99.90;;;;;;5051853;28;20021;-70
2023/06/07 05:14:01;;;;;;;23.48;14.35;;;13.30;99.90;;;;;;5050932;28;20132;-72
2023/06/07 05:16:27;;;;;;;17.92;12.25;;;13.40;99.90;;;;;;5051471;28;20021;-70
2023/06/07 05:18:53;;;;;;;19.95;12.65;;;13.60;99.90;;;;;;5051674;28;20029;-70
2023/06/07 05:21:19;;;;;;;16.10;12.50;;;13.70;99.90;;;;;;5051275;28;20643;-70
2023/06/07 05:23:45;;;;;;;18.10;12.00;;;13.80;99.90;;;;;;5051827;28;20044;-71
2023/06/07 05:26:11;;;;;;;17.52;11.60;;;13.70;99.90;;;;;;5050655;28;20044;-71
2023/06/07 05:28:36;;;;;;;18.02;11.82;;;13.70;99.90;;;;;;5051522;28;20032;-71
2023/06/07 05:31:03;;;;;;;15.27;11.90;;;13.70;99.90;;;;;;5050400;28;20104;-71
2023/06/07 05:33:28;;;;;;;19.73;13.48;;;13.70;99.90;;;;;;5050057;28;20033;-71
2023/06/07 05:35:55;;;;;;;20.92;13.63;;;13.70;99.90;;;;;;5051287;28;20033;-70
2023/06/07 05:38:21;;;;;;;20.65;14.27;;;13.80;99.90;;;;;;5050628;28;20104;-70
2023/06/07 05:40:46;;;;;;;20.88;13.57;;;13.80;99.90;;;;;;5051083;28;20104;-70
2023/06/07 05:43:12;;;;;;;22.30;13.95;;;13.80;99.90;;;;;;5050759;28;20574;-71
2023/06/07 05:45:40;;;;;;;21.52;14.27;;;13.80;99.90;;;;;;5050883;28;20044;-71
2023/06/07 05:48:06;;;;;;;18.25;12.60;;;13.90;99.90;;;;;;5050272;28;20028;-71
2023/06/07 05:50:32;;;;;;;22.45;13.43;;;14.00;99.90;;;;;;5050915;28;20107;-70
2023/06/07 05:52:59;;;;;;;19.13;11.75;;;14.00;99.90;;;;;;5051361;28;20071;-71
2023/06/07 05:55:25;;;;;;;21.13;11.98;;;14.00;99.90;;;;;;5050246;28;20504;-70
2023/06/07 05:57:52;;;;;;;18.67;12.43;;;14.00;99.90;;;;;;5050906;28;20025;-71
2023/06/07 06:00:18;;;;;;;19.25;12.20;;;14.20;99.90;;;;;;5050349;28;20036;-70
2023/06/07 06:02:46;;;;;;;15.90;11.80;;;14.20;99.90;;;;;;5050820;28;20025;-71
2023/06/07 06:05:18;;;;;;;20.77;12.07;;;14.30;99.90;;;;;;5050166;28;20033;-71
2023/06/07 06:07:43;;;;;;;17.88;12.38;;;14.30;99.90;;;;;;5050654;28;20029;-71
2023/06/07 06:10:11;;;;;;;18.55;12.10;;;14.40;99.90;;;;;;5050061;28;20158;-71
2023/06/07 06:12:37;;;;;;;17.38;12.70;;;14.50;99.90;;;;;;5050715;28;20021;-71
2023/06/07 06:15:03;;;;;;;14.77;10.73;;;14.30;99.90;;;;;;5050245;28;20083;-73
2023/06/07 06:17:29;;;;;;;17.52;11.80;;;14.20;99.90;;;;;;5049742;28;20025;-70
2023/06/07 06:19:55;;;;;;;18.75;10.95;;;14.20;99.90;;;;;;5050366;28;20064;-70
2023/06/07 06:22:20;;;;;;;14.77;11.13;;;14.10;99.90;;;;;;5049994;28;20056;-71
2023/06/07 06:24:46;;;;;;;12.55;10.05;;;14.00;99.90;;;;;;5050366;28;20037;-70
2023/06/07 06:27:12;;;;;;;13.45;10.45;;;13.90;99.90;;;;;;5049643;28;20094;-70
2023/06/07 06:29:38;;;;;;;18.05;11.38;;;13.90;99.90;;;;;;5050215;28;20052;-70
2023/06/07 06:32:04;;;;;;;15.45;11.45;;;13.90;99.90;;;;;;5050065;28;20539;-74
2023/06/07 06:34:30;;;;;;;12.57;10.85;;;13.90;99.90;;;;;;5048743;28;20039;-70
2023/06/07 06:37:00;;;;;;;18.02;11.75;;;13.90;99.90;;;;;;5050322;28;20374;-70
2023/06/07 06:39:26;;;;;;;19.55;12.40;;;13.80;99.90;;;;;;5049734;28;20028;-70
2023/06/07 06:41:52;;;;;;;16.23;11.90;;;13.80;99.90;;;;;;5050151;28;20029;-71
2023/06/07 06:44:18;;;;;;;19.33;12.25;;;13.90;99.90;;;;;;5049495;28;20032;-70
2023/06/07 06:46:43;;;;;;;16.90;12.23;;;14.00;99.90;;;;;;5049816;28;20021;-70
2023/06/07 06:49:09;;;;;;;16.70;12.18;;;14.10;99.90;;;;;;5049350;28;20466;-70
2023/06/07 06:51:35;;;;;;;17.13;12.00;;;14.30;99.90;;;;;;5049896;28;20033;-70
2023/06/07 06:54:01;;;;;;;15.15;11.57;;;14.30;99.90;;;;;;5050038;28;20429;-70
2023/06/07 06:56:27;;;;;;;22.05;12.23;;;14.40;99.90;;;;;;5049272;28;20227;-70
2023/06/07 06:58:52;;;;;;;14.80;11.35;;;14.30;99.90;;;;;;5048418;28;20079;-70
2023/06/07 07:01:18;;;;;;;13.68;10.73;;;14.50;99.90;;;;;;5049229;28;20021;-71
2023/06/07 07:03:44;;;;;;;12.95;10.15;;;14.50;99.90;;;;;;5049959;28;20040;-70
2023/06/07 07:06:10;;;;;;;14.23;10.90;;;14.60;99.90;;;;;;5049717;28;20106;-71
2023/06/07 07:08:36;;;;;;;19.45;11.32;;;14.70;99.90;;;;;;5049702;28;20446;-71
2023/06/07 07:11:02;;;;;;;14.45;10.38;;;14.80;99.90;;;;;;5049868;28;20079;-70
2023/06/07 07:13:28;;;;;;;16.80;10.80;;;14.90;99.90;;;;;;5049377;28;20021;-71
2023/06/07 07:15:54;;;;;;;15.43;10.70;;;14.90;99.90;;;;;;5049930;28;20425;-71
2023/06/07 07:18:20;;;;;;;23.35;10.40;;;14.80;99.90;;;;;;5048832;28;20033;-71
2023/06/07 07:20:46;;;;;;;30.42;11.60;;;14.60;99.90;;;;;;5049455;28;20032;-70
2023/06/07 07:23:12;;;;;;;14.15;9.82;;;14.60;99.90;;;;;;5049361;28;20470;-71
2023/06/07 07:25:38;;;;;;;12.38;9.80;;;14.50;99.90;;;;;;5049227;28;20351;-71
2023/06/07 07:28:04;;;;;;;13.60;9.95;;;14.30;99.90;;;;;;5050352;28;20132;-70
2023/06/07 07:30:30;;;;;;;15.13;9.95;;;14.10;99.90;;;;;;5052453;28;20108;-71
2023/06/07 07:32:58;;;;;;;13.43;9.52;;;14.10;99.90;;;;;;5053355;28;20076;-70
2023/06/07 07:35:24;;;;;;;14.23;9.32;;;14.10;99.90;;;;;;5051157;28;20532;-70
2023/06/07 07:37:53;;;;;;;14.02;9.27;;;14.20;99.90;;;;;;5053262;28;20148;-71
2023/06/07 07:40:19;;;;;;;13.07;8.82;;;14.30;99.90;;;;;;5052673;28;20116;-70
2023/06/07 07:42:45;;;;;;;12.98;9.02;;;14.40;99.90;;;;;;5053370;28;20129;-70
2023/06/07 07:45:11;;;;;;;10.85;7.80;;;14.30;99.90;;;;;;5052633;28;20040;-71
2023/06/07 07:47:37;;;;;;;15.93;9.05;;;14.30;99.90;;;;;;5053047;28;20131;-71
2023/06/07 07:50:04;;;;;;;11.25;8.27;;;14.40;99.90;;;;;;5053439;28;20385;-70
2023/06/07 07:52:30;;;;;;;12.88;7.95;;;14.40;99.90;;;;;;5052901;28;20260;-70
2023/06/07 07:54:56;;;;;;;12.13;7.60;;;14.20;99.90;;;;;;5053035;28;20107;-70
2023/06/07 07:57:22;;;;;;;10.90;8.40;;;14.10;99.90;;;;;;5052284;28;20076;-71
2023/06/07 07:59:47;;;;;;;11.43;7.35;;;14.10;99.90;;;;;;5052660;28;20020;-70
2023/06/07 08:02:13;;;;;;;12.32;8.02;;;14.10;99.90;;;;;;5052230;28;20450;-71
2023/06/07 08:04:39;;;;;;;9.65;7.18;;;14.10;99.90;;;;;;5052822;28;20521;-71
2023/06/07 08:07:05;;;;;;;8.85;7.30;;;14.10;99.90;;;;;;5052520;28;20021;-71
2023/06/07 08:09:49;;;;;;;7.93;7.05;;;14.20;99.90;;;;;;5052296;28;20048;-70
2023/06/07 08:12:15;;;;;;;10.43;7.55;;;14.10;99.90;;;;;;5052484;28;20501;-71
2023/06/07 08:14:40;;;;;;;9.40;7.55;;;14.00;99.90;;;;;;5053075;28;20112;-71
2023/06/07 08:17:06;;;;;;;8.40;6.80;;;13.90;99.90;;;;;;5052909;28;20028;-70
2023/06/07 08:19:32;;;;;;;13.98;7.68;;;13.90;99.90;;;;;;5051545;28;20083;-71
2023/06/07 08:21:57;;;;;;;11.02;7.13;;;14.00;99.90;;;;;;5052427;28;20107;-71
2023/06/07 08:24:23;;;;;;;10.50;8.25;;;14.00;99.90;;;;;;5052122;28;20089;-71
2023/06/07 08:26:49;;;;;;;8.88;7.88;;;14.00;99.90;;;;;;5052455;28;20056;-71
2023/06/07 08:29:15;;;;;;;9.35;7.88;;;13.90;99.90;;;;;;5051573;28;20017;-71
2023/06/07 08:31:43;;;;;;;14.15;7.97;;;14.00;99.90;;;;;;5052880;28;20021;-72
2023/06/07 08:34:09;;;;;;;10.43;6.95;;;14.10;99.90;;;;;;5053336;28;20040;-71
2023/06/07 08:36:36;;;;;;;8.65;6.25;;;14.10;99.90;;;;;;5051547;28;20522;-71
2023/06/07 08:39:02;;;;;;;8.32;6.20;;;14.10;99.90;;;;;;5051006;28;20029;-71
2023/06/07 08:41:28;;;;;;;9.02;6.35;;;14.00;99.90;;;;;;5051668;28;20419;-71
2023/06/07 08:43:54;;;;;;;7.88;6.00;;;14.00;99.90;;;;;;5051975;28;20025;-71
2023/06/07 08:46:20;;;;;;;8.25;5.93;;;14.00;99.90;;;;;;5051060;28;20514;-70
2023/06/07 08:48:49;;;;;;;8.35;4.80;;;14.00;99.90;;;;;;5051966;28;20131;-69
2023/06/07 08:51:17;;;;;;;7.22;4.57;;;14.00;99.90;;;;;;5050975;28;20028;-73
2023/06/07 08:53:54;;;;;;;6.75;4.05;;;13.90;99.90;;;;;;5052205;28;20029;-70
2023/06/07 08:56:21;;;;;;;8.45;4.30;;;13.90;99.90;;;;;;5051369;28;20033;-71
2023/06/07 08:58:48;;;;;;;7.70;4.10;;;14.00;99.90;;;;;;5050602;28;20418;-70
2023/06/07 09:01:15;;;;;;;8.35;4.25;;;13.90;99.90;;;;;;5047398;28;20025;-73
2023/06/07 09:03:41;;;;;;;5.05;4.15;;;13.90;99.90;;;;;;5050698;28;20032;-71
2023/06/07 09:06:08;;;;;;;5.95;4.20;;;14.00;99.90;;;;;;5050320;28;20108;-71
2023/06/07 09:08:34;;;;;;;4.82;3.90;;;13.90;99.90;;;;;;5051010;28;20463;-71
2023/06/07 09:11:00;;;;;;;6.22;4.47;;;13.90;99.90;;;;;;5051642;28;20092;-71
2023/06/07 09:13:26;;;;;;;8.82;4.53;;;13.90;99.90;;;;;;5051211;28;20021;-70
2023/06/07 09:15:52;;;;;;;5.93;4.53;;;13.90;99.90;;;;;;5051606;28;20025;-70
2023/06/07 09:18:18;;;;;;;6.25;4.32;;;13.80;99.90;;;;;;5051134;28;20043;-71
2023/06/07 09:20:44;;;;;;;7.50;4.65;;;13.90;99.90;;;;;;5051506;28;20459;-70
2023/06/07 09:23:14;;;;;;;7.85;5.07;;;14.00;99.90;;;;;;5052000;28;20036;-71
2023/06/07 09:25:44;;;;;;;8.40;4.90;;;14.00;99.90;;;;;;5051316;28;20127;-71
2023/06/07 09:28:14;;;;;;;9.55;5.38;;;13.90;99.90;;;;;;5050146;28;20474;-71
2023/06/07 09:30:59;;;;;;;6.68;5.28;;;14.10;99.90;;;;;;5051216;28;20021;-71
2023/06/07 09:33:29;;;;;;;7.30;4.85;;;14.10;99.90;;;;;;5050842;28;20028;-71
2023/06/07 09:36:09;;;;;;;6.72;5.07;;;14.00;99.90;;;;;;5051358;28;20029;-71
2023/06/07 09:38:35;;;;;;;9.05;4.80;;;14.00;99.90;;;;;;5050598;28;20025;-71
2023/06/07 09:41:03;;;;;;;8.82;4.68;;;14.10;99.90;;;;;;5051580;28;20512;-71
2023/06/07 09:43:46;;;;;;;6.95;4.60;;;14.00;99.90;;;;;;5050161;28;20037;-71
2023/06/07 09:46:12;;;;;;;;;;;14.20;99.90;;;;;;5051465;28;20037;-71
2023/06/07 09:48:52;;;;;;;5.57;4.38;;;14.30;99.90;;;;;;5049939;28;20002;-72
2023/06/07 09:51:20;;;;;;;6.50;4.80;;;14.30;99.90;;;;;;5049863;28;20443;-72
2023/06/07 09:53:53;;;;;;;4.95;4.40;;;14.30;99.90;;;;;;5050469;28;20105;-71
2023/06/07 09:56:19;;;;;;;;;;;14.30;99.90;;;;;;5049872;28;20032;-73
2023/06/07 09:58:49;;;;;;;8.23;4.45;;;14.20;99.90;;;;;;5050384;28;20298;-71
2023/06/07 10:01:29;;;;;;;6.25;4.40;;;14.20;99.90;;;;;;5050221;28;20025;-71
2023/06/07 10:03:55;;;;;;;5.25;4.63;;;14.30;99.90;;;;;;5049827;28;20079;-71
2023/06/07 10:06:21;;;;;;;7.15;3.92;;;14.20;99.90;;;;;;5049487;28;20033;-71
2023/06/07 10:08:49;;;;;;;5.75;4.03;;;14.30;99.90;;;;;;5050376;28;20075;-71
2023/06/07 10:11:15;;;;;;;5.93;4.10;;;14.30;99.90;;;;;;5050191;28;20021;-71
2023/06/07 10:13:42;;;;;;;4.97;3.80;;;14.30;99.90;;;;;;5049537;28;20036;-71
2023/06/07 10:16:10;;;;;;;7.35;3.95;;;14.30;99.90;;;;;;5050078;28;20050;-71
2023/06/07 10:18:39;;;;;;;9.43;4.45;;;14.20;99.90;;;;;;5049362;28;20040;-72
2023/06/07 10:21:14;;;;;;;6.40;4.05;;;14.20;99.90;;;;;;5049545;28;20029;-71
2023/06/07 10:23:57;;;;;;;5.63;4.05;;;14.30;99.90;;;;;;5049292;28;20043;-71
2023/06/07 10:26:35;;;;;;;6.50;3.80;;;14.30;99.90;;;;;;5047877;28;20171;-70
2023/06/07 10:29:17;;;;;;;6.93;4.05;;;14.40;99.90;;;;;;5049799;28;20073;-70
2023/06/07 10:31:50;;;;;;;7.20;3.90;;;14.30;99.90;;;;;;5049731;28;20033;-71
2023/06/07 10:34:18;;;;;;;9.25;4.10;;;14.40;99.90;;;;;;5049617;28;20497;-69
2023/06/07 10:36:44;;;;;;;5.78;3.63;;;14.40;99.90;;;;;;5050290;28;20032;-69
2023/06/07 10:39:11;;;;;;;4.70;3.15;;;14.50;99.90;;;;;;5049685;28;20029;-72
2023/06/07 10:41:38;;;;;;;6.00;3.60;;;14.40;99.90;;;;;;5049427;28;20044;-72
2023/06/07 10:44:04;;;;;;;7.15;3.72;;;14.40;99.90;;;;;;5049416;28;20467;-69
2023/06/07 10:46:30;;;;;;;10.02;3.80;;;14.50;99.90;;;;;;5048961;28;20116;-70
2023/06/07 10:48:56;;;;;;;6.68;3.65;;;14.50;99.90;;;;;;5049393;28;20151;-71
2023/06/07 10:51:41;;;;;;;6.57;3.85;;;14.40;99.90;;;;;;5047557;28;20021;-71
2023/06/07 10:54:07;;;;;;;7.05;3.75;;;14.50;99.90;;;;;;5049459;28;20040;-70
2023/06/07 10:56:35;;;;;;;7.32;3.60;;;14.50;99.90;;;;;;5048643;28;20025;-70
2023/06/07 10:59:13;;;;;;;4.38;3.42;;;14.40;99.90;;;;;;5049760;28;20036;-71
2023/06/07 11:01:38;;;;;;;4.72;3.78;;;14.30;99.90;;;;;;5047926;28;20561;-70
2023/06/07 11:04:04;;;;;;;4.22;3.50;;;14.40;99.90;;;;;;5048848;28;20115;-70
2023/06/07 11:06:34;;;;;;;5.50;3.60;;;14.70;99.90;;;;;;5048995;28;20402;-71
2023/06/07 11:09:18;;;;;;;4.65;3.55;;;14.80;99.90;;;;;;5049274;28;20096;-70
2023/06/07 11:11:44;;;;;;;7.10;3.70;;;15.00;99.90;;;;;;5048972;28;20072;-70
2023/06/07 11:14:12;;;;;;;4.30;3.17;;;15.10;99.90;;;;;;5048190;28;20079;-70
2023/06/07 11:16:38;;;;;;;5.88;3.42;;;15.40;99.90;;;;;;5048039;28;20651;-71
2023/06/07 11:19:09;;;;;;;4.30;2.85;;;15.40;99.90;;;;;;5048938;28;20119;-70
2023/06/07 11:21:53;;;;;;;6.72;3.30;;;15.60;99.90;;;;;;5048219;28;20033;-71
2023/06/07 11:24:20;;;;;;;5.72;3.45;;;15.70;99.90;;;;;;5048796;28;20116;-73
2023/06/07 11:26:47;;;;;;;4.57;3.03;;;15.70;99.90;;;;;;5048952;28;20362;-71
2023/06/07 11:29:15;;;;;;;4.22;3.10;;;15.70;99.90;;;;;;5049051;28;20040;-70
2023/06/07 11:31:41;;;;;;;7.30;3.28;;;15.80;99.90;;;;;;5035655;28;20451;-71
2023/06/07 11:34:09;;;;;;;5.55;3.13;;;15.90;99.90;;;;;;5045131;28;20040;-71
2023/06/07 11:36:35;;;;;;;4.82;3.28;;;15.90;99.90;;;;;;5048103;28;20363;-71
2023/06/07 11:39:07;;;;;;;5.25;3.47;;;15.90;99.90;;;;;;5048333;28;20040;-71
2023/06/07 11:41:33;;;;;;;5.33;3.33;;;15.90;99.90;;;;;;5048632;28;20026;-71
2023/06/07 11:44:01;;;;;;;5.25;3.50;;;16.10;99.90;;;;;;5048419;28;20049;-71
2023/06/07 11:46:37;;;;;;;5.97;3.38;;;16.20;99.90;;;;;;5048351;28;20104;-71
2023/06/07 11:49:09;;;;;;;6.25;3.67;;;16.20;99.90;;;;;;5048384;28;20040;-72
2023/06/07 11:51:39;;;;;;;4.78;3.00;;;16.10;99.90;;;;;;5047822;28;20048;-72
2023/06/07 11:54:05;;;;;;;5.93;3.05;;;16.20;99.90;;;;;;5048660;28;20041;-71
2023/06/07 11:56:36;;;;;;;5.15;3.00;;;16.10;99.90;;;;;;5047536;28;20401;-71
2023/06/07 11:59:03;;;;;;;4.65;2.80;;;16.00;99.90;;;;;;5048400;28;20083;-71
2023/06/07 12:01:29;;;;;;;6.15;2.67;;;16.20;99.90;;;;;;5047697;28;20127;-71
2023/06/07 12:03:56;;;;;;;3.88;2.55;;;16.00;99.90;;;;;;5047760;28;20458;-70
2023/06/07 12:06:26;;;;;;;4.07;2.75;;;16.10;99.90;;;;;;5047393;28;20083;-73
2023/06/07 12:08:52;;;;;;;7.00;3.42;;;16.30;99.90;;;;;;5048373;28;20083;-71
2023/06/07 12:11:22;;;;;;;4.75;3.00;;;16.40;99.90;;;;;;5048522;28;20033;-71
2023/06/07 12:13:53;;;;;;;5.32;3.40;;;16.30;99.90;;;;;;5050414;28;20025;-71
2023/06/07 12:16:21;;;;;;;5.55;3.20;;;16.40;99.90;;;;;;5051785;28;20025;-73
2023/06/07 12:18:47;;;;;;;5.80;3.50;;;16.40;99.90;;;;;;5051906;28;20328;-71
2023/06/07 12:21:16;;;;;;;5.78;3.38;;;16.00;99.90;;;;;;5051893;28;20025;-71
2023/06/07 12:23:53;;;;;;;3.95;3.30;;;16.10;99.90;;;;;;5051573;28;20037;-71
2023/06/07 12:26:20;;;;;;;9.93;4.03;;;16.20;99.90;;;;;;5051525;28;20087;-71
2023/06/07 12:28:49;;;;;;;7.20;3.70;;;16.30;99.90;;;;;;5051556;28;20029;-71
2023/06/07 12:31:19;;;;;;;12.73;4.38;;;16.50;99.90;;;;;;5051749;28;20025;-70
2023/06/07 12:34:10;;;;;;;10.60;4.45;;;16.60;99.90;;;;;;5050957;28;20025;-71
2023/06/07 12:36:40;;;;;;;9.18;4.70;;;16.50;99.90;;;;;;5032099;28;20032;-70
2023/06/07 12:39:08;;;;;;;6.75;3.55;;;16.50;99.90;;;;;;5032485;28;20029;-71
2023/06/07 12:41:35;;;;;;;7.72;3.38;;;16.20;99.90;;;;;;5031273;28;20424;-72